Time;durP1;ratioP1;P1;durP2;ratioP2;P2;SDS_P1;SDS_P2;PMS_P1;PMS_P2;Temp;Humidity;BMP_temperature;BMP_pressure;BME280_temperature;BME280_humidity;BME280_pressure;Samples;Min_cycle;Max_cycle;Signal;HPM_P1;HPM_P2
2020/12/24 00:01:10;;;;;;;2.92;2.00;;;11.40;84.30;;;9.46;84.57;95663.09;5072930;28;20028;-70
2020/12/24 00:03:36;;;;;;;3.78;2.67;;;11.40;84.50;;;9.45;84.48;95671.97;5075520;28;20109;-71
2020/12/24 00:06:01;;;;;;;6.93;4.45;;;11.30;84.70;;;9.45;85.25;95673.78;5071352;28;20108;-71
2020/12/24 00:08:27;;;;;;;8.30;4.53;;;11.30;84.80;;;9.44;83.86;95680.03;5079712;28;20415;-70
2020/12/24 00:10:52;;;;;;;4.50;3.10;;;11.20;85.00;;;9.43;83.96;95683.66;5082438;28;20174;-70
2020/12/24 00:13:18;;;;;;;4.43;2.05;;;11.20;85.00;;;9.39;84.66;95667.50;5056397;28;20044;-72
2020/12/24 00:15:44;;;;;;;3.88;2.20;;;11.10;85.40;;;9.39;85.23;95664.06;5036018;28;20052;-71
2020/12/24 00:18:10;;;;;;;4.50;2.20;;;11.20;85.50;;;9.38;85.12;95659.81;5039047;28;20491;-71
2020/12/24 00:20:35;;;;;;;3.80;2.03;;;11.10;85.90;;;9.38;84.54;95647.50;5038357;28;20032;-70
2020/12/24 00:23:02;;;;;;;3.55;2.08;;;11.10;85.80;;;9.37;85.21;95621.44;5039329;28;20080;-70
2020/12/24 00:25:27;;;;;;;2.72;1.98;;;11.20;85.60;;;9.36;84.43;95602.25;5022501;28;20099;-71
2020/12/24 00:27:53;;;;;;;4.72;2.10;;;11.10;85.70;;;9.37;84.67;95617.00;5052378;28;20111;-71
2020/12/24 00:30:19;;;;;;;3.33;1.65;;;11.20;85.50;;;9.38;84.65;95628.31;5069284;22;20739;-67
2020/12/24 00:32:44;;;;;;;5.18;2.80;;;11.20;85.40;;;9.38;84.94;95620.44;5044307;28;20051;-67
2020/12/24 00:35:10;;;;;;;4.47;2.10;;;11.20;85.30;;;9.38;84.78;95628.31;5064138;28;20131;-66
2020/12/24 00:37:35;;;;;;;4.20;2.30;;;11.20;85.10;;;9.37;85.02;95639.81;5051759;28;20424;-67
2020/12/24 00:40:03;;;;;;;4.70;2.65;;;11.20;85.30;;;9.34;85.79;95642.84;5067152;28;20051;-67
2020/12/24 00:42:28;;;;;;;8.48;5.18;;;11.10;85.80;;;9.33;85.41;95646.47;5012531;28;20041;-66
2020/12/24 00:44:54;;;;;;;8.45;4.65;;;11.10;85.90;;;9.29;85.80;95650.47;5032199;28;20033;-67
2020/12/24 00:47:19;;;;;;;8.68;5.35;;;11.00;86.40;;;9.27;85.54;95647.22;5065528;28;20045;-67
2020/12/24 00:49:45;;;;;;;6.65;3.53;;;11.00;86.30;;;9.27;85.21;95641.97;5065733;28;20086;-67
2020/12/24 00:52:11;;;;;;;3.58;2.47;;;11.10;86.10;;;9.26;85.88;95638.53;5064295;28;20049;-67
2020/12/24 00:54:36;;;;;;;5.88;3.33;;;11.10;86.10;;;9.22;85.95;95632.03;5032299;28;20045;-67
2020/12/24 00:57:02;;;;;;;6.30;3.78;;;11.00;86.10;;;9.21;86.35;95636.47;5032091;28;20131;-67
2020/12/24 00:59:27;;;;;;;4.80;2.83;;;11.00;86.20;;;9.20;85.36;95637.50;5046833;28;20044;-67
2020/12/24 01:01:53;;;;;;;3.30;2.35;;;11.00;86.00;;;9.19;85.43;95646.38;5047958;28;20064;-67
2020/12/24 01:04:18;;;;;;;4.47;2.13;;;11.00;86.10;;;9.18;85.78;95652.63;5047970;28;20056;-67
2020/12/24 01:06:44;;;;;;;7.18;2.33;;;10.90;86.10;;;9.16;86.36;95649.38;5049892;28;20033;-67
2020/12/24 01:09:10;;;;;;;3.45;1.77;;;10.90;86.20;;;9.14;85.99;95661.88;5064417;28;20037;-66
2020/12/24 01:11:35;;;;;;;3.63;2.20;;;10.90;86.20;;;9.14;85.71;95648.75;5048979;28;20102;-66
2020/12/24 01:14:01;;;;;;;2.15;1.65;;;11.00;86.10;;;9.15;86.09;95644.31;5064604;28;20041;-67
2020/12/24 01:16:27;;;;;;;2.60;1.80;;;11.00;85.90;;;9.15;85.19;95645.13;5048818;28;20064;-66
2020/12/24 01:18:52;;;;;;;2.47;1.63;;;11.00;85.80;;;9.17;85.11;95648.38;5047737;28;20052;-66
2020/12/24 01:21:18;;;;;;;2.47;1.63;;;11.00;85.70;;;9.16;86.14;95654.63;5048466;28;20086;-65
2020/12/24 01:23:43;;;;;;;2.30;1.73;;;11.00;85.90;;;9.16;85.45;95652.00;5031722;28;20065;-66
2020/12/24 01:26:09;;;;;;;3.97;1.83;;;11.00;85.90;;;9.14;85.34;95646.13;5031354;28;20040;-66
2020/12/24 01:28:35;;;;;;;4.68;2.05;;;11.00;85.90;;;9.14;85.78;95647.94;5030922;28;20226;-66
2020/12/24 01:31:00;;;;;;;2.65;1.58;;;11.00;85.90;;;9.11;86.19;95651.75;5031160;28;20071;-67
2020/12/24 01:33:27;;;;;;;2.20;1.60;;;10.90;85.90;;;9.09;86.13;95651.16;5031765;28;20064;-67
2020/12/24 01:35:53;;;;;;;2.88;1.85;;;10.80;86.10;;;9.10;85.82;95651.97;5030981;28;20069;-66
2020/12/24 01:38:18;;;;;;;1.45;1.10;;;10.90;86.00;;;9.09;86.04;95664.25;5047590;28;20136;-66
2020/12/24 01:40:44;;;;;;;1.73;1.05;;;10.90;85.80;;;9.08;85.94;95665.28;5049683;28;20446;-66
2020/12/24 01:43:10;;;;;;;1.73;1.20;;;10.80;85.70;;;9.09;85.51;95652.97;5048319;28;20021;-67
2020/12/24 01:45:36;;;;;;;1.98;1.20;;;10.90;85.70;;;9.08;86.22;95643.47;5047847;28;20531;-67
2020/12/24 01:48:01;;;;;;;1.70;1.10;;;10.90;85.40;;;9.07;86.06;95647.91;5047504;28;20029;-67
2020/12/24 01:50:27;;;;;;;2.88;1.15;;;10.90;85.30;;;9.08;85.62;95652.16;5048162;28;20025;-66
2020/12/24 01:52:53;;;;;;;1.55;1.05;;;10.90;85.20;;;9.04;86.02;95647.44;5049256;28;20056;-67
2020/12/24 01:55:18;;;;;;;2.08;1.20;;;10.80;85.40;;;9.03;86.20;95644.00;5014477;28;20589;-67
2020/12/24 01:57:44;;;;;;;2.35;1.17;;;10.80;85.60;;;9.03;86.28;95636.16;5030616;28;20711;-67
2020/12/24 02:00:10;;;;;;;1.33;0.90;;;10.80;85.50;;;9.01;86.15;95635.53;5030451;28;20071;-67
2020/12/24 02:02:35;;;;;;;2.17;0.90;;;10.70;85.60;;;9.01;86.49;95640.78;5014890;28;20029;-67
2020/12/24 02:05:01;;;;;;;1.92;1.02;;;10.70;85.60;;;9.00;85.24;95643.59;5013944;28;20083;-67
2020/12/24 02:07:27;;;;;;;1.92;0.90;;;10.70;85.50;;;8.97;85.45;95636.09;5031257;28;20045;-67
2020/12/24 02:09:52;;;;;;;3.25;1.00;;;10.60;85.20;;;8.97;86.09;95633.47;5047922;28;20068;-68
2020/12/24 02:12:18;;;;;;;2.85;1.05;;;10.60;85.30;;;8.95;85.87;95622.38;5047568;28;20059;-67
2020/12/24 02:14:44;;;;;;;1.35;0.85;;;10.70;85.20;;;8.94;85.23;95621.56;5014074;28;20166;-67
2020/12/24 02:17:10;;;;;;;3.28;0.82;;;10.60;85.20;;;8.94;86.09;95624.19;5047261;28;20112;-67
2020/12/24 02:19:37;;;;;;;1.83;0.70;;;10.60;85.20;;;8.92;85.80;95623.56;5030714;28;20065;-67
2020/12/24 02:22:03;;;;;;;1.50;0.80;;;10.70;85.40;;;8.90;86.29;95621.13;5029308;28;20535;-67
2020/12/24 02:24:29;;;;;;;1.50;0.80;;;10.60;85.20;;;8.90;85.12;95625.56;5014557;28;20033;-67
2020/12/24 02:26:55;;;;;;;3.58;0.90;;;10.60;85.30;;;8.89;85.72;95623.94;5063412;28;20470;-67
2020/12/24 02:29:21;;;;;;;1.88;0.75;;;10.60;85.30;;;8.87;85.60;95616.28;5030465;28;20044;-67
2020/12/24 02:31:46;;;;;;;2.17;0.80;;;10.60;85.10;;;8.87;84.90;95615.47;5046697;28;20493;-74
2020/12/24 02:34:12;;;;;;;2.55;1.00;;;10.60;85.10;;;8.83;85.23;95614.22;5063285;28;20127;-67
2020/12/24 02:36:37;;;;;;;3.17;1.08;;;10.50;85.10;;;8.80;85.39;95611.97;5047087;28;20056;-67
2020/12/24 02:39:03;;;;;;;1.17;0.70;;;10.50;85.20;;;8.81;85.85;95619.63;5046894;28;20045;-66
2020/12/24 02:41:29;;;;;;;1.35;0.60;;;10.50;85.10;;;8.79;85.53;95607.72;5046494;28;20638;-66
2020/12/24 02:43:54;;;;;;;2.42;0.77;;;10.60;84.90;;;8.77;85.16;95614.97;5030231;28;20106;-66
2020/12/24 02:46:20;;;;;;;2.70;1.00;;;10.40;85.00;;;8.75;85.85;95614.34;5030221;28;20127;-67
2020/12/24 02:48:45;;;;;;;2.08;1.00;;;10.50;85.10;;;8.75;85.83;95614.34;5026436;28;20053;-67
2020/12/24 02:51:12;;;;;;;1.95;0.70;;;10.50;85.10;;;8.73;85.70;95616.34;5046202;28;20033;-67
2020/12/24 02:53:38;;;;;;;1.75;0.73;;;10.40;85.20;;;8.69;85.10;95613.28;5030605;28;20041;-67
2020/12/24 02:56:03;;;;;;;2.42;0.70;;;10.40;85.30;;;8.67;85.69;95610.06;5046332;28;20037;-67
2020/12/24 02:58:29;;;;;;;1.17;0.70;;;10.40;85.40;;;8.64;85.93;95604.38;5063270;28;20116;-68
2020/12/24 03:00:55;;;;;;;3.10;0.85;;;10.40;85.40;;;8.63;85.86;95600.13;5048199;28;20044;-69
2020/12/24 03:03:20;;;;;;;1.42;0.80;;;10.40;85.40;;;8.62;86.03;95591.47;5046435;28;20041;-67
2020/12/24 03:05:46;;;;;;;2.45;0.90;;;10.40;85.40;;;8.63;85.94;95597.50;5021934;28;20029;-67
2020/12/24 03:08:12;;;;;;;1.80;0.85;;;10.50;85.20;;;8.63;85.77;95597.50;5029662;28;20029;-68
2020/12/24 03:10:38;;;;;;;1.77;0.73;;;10.50;85.20;;;8.62;85.94;95580.16;5046715;28;20029;-67
2020/12/24 03:13:03;;;;;;;2.38;1.00;;;10.40;85.30;;;8.61;85.65;95578.53;5030340;28;20029;-68
2020/12/24 03:15:29;;;;;;;3.08;1.08;;;10.50;85.20;;;8.62;85.56;95574.91;5046800;28;20381;-65
2020/12/24 03:17:54;;;;;;;1.67;0.90;;;10.40;85.20;;;8.62;85.99;95574.91;5047362;28;20037;-66
2020/12/24 03:20:20;;;;;;;1.80;0.85;;;10.50;85.30;;;8.62;85.61;95574.91;5046522;28;20041;-66
2020/12/24 03:22:45;;;;;;;1.38;0.60;;;10.50;85.20;;;8.61;85.58;95573.31;5063311;28;20128;-65
2020/12/24 03:25:11;;;;;;;1.20;0.73;;;10.50;85.20;;;8.61;85.72;95565.44;5030101;28;20044;-66
2020/12/24 03:27:37;;;;;;;1.30;0.70;;;10.40;85.00;;;8.58;86.31;95566.59;5046468;28;20201;-67
2020/12/24 03:30:03;;;;;;;2.50;0.85;;;10.40;85.30;;;8.55;85.48;95565.16;5045908;28;20059;-66
2020/12/24 03:32:29;;;;;;;2.30;0.95;;;10.40;85.30;;;8.56;85.89;95564.16;5045774;28;20037;-67
2020/12/24 03:34:54;;;;;;;1.63;0.80;;;10.40;85.40;;;8.56;85.55;95569.41;5041046;28;20041;-67
2020/12/24 03:37:20;;;;;;;2.55;0.90;;;10.40;85.40;;;8.55;85.57;95565.16;5055703;28;20047;-66
2020/12/24 03:39:45;;;;;;;1.30;0.73;;;10.40;85.40;;;8.54;86.35;95566.16;5063261;28;20504;-67
2020/12/24 03:42:11;;;;;;;3.15;0.82;;;10.40;85.40;;;8.52;86.25;95568.19;5045251;28;20463;-67
2020/12/24 03:44:36;;;;;;;2.70;1.00;;;10.30;85.60;;;8.51;86.25;95558.69;5029664;28;20057;-67
2020/12/24 03:47:03;;;;;;;2.67;1.20;;;10.30;85.80;;;8.47;86.69;95567.94;5029804;28;20463;-67
2020/12/24 03:49:28;;;;;;;1.77;0.95;;;10.10;86.20;;;8.44;86.45;95572.75;5047327;28;20590;-67
2020/12/24 03:51:54;;;;;;;2.10;1.00;;;10.10;86.50;;;8.38;86.52;95558.59;5045652;28;20065;-67
2020/12/24 03:54:20;;;;;;;2.30;1.23;;;10.00;86.90;;;8.36;86.33;95560.56;5031710;28;20437;-67
2020/12/24 03:56:45;;;;;;;1.85;1.13;;;10.00;87.00;;;8.30;86.86;95551.63;5050030;28;20036;-66
2020/12/24 03:59:11;;;;;;;2.65;1.00;;;9.90;87.20;;;8.27;86.46;95557.25;5050054;28;20080;-67
2020/12/24 04:01:36;;;;;;;1.88;1.10;;;9.80;87.50;;;8.24;86.55;95559.44;5050060;28;20054;-67
2020/12/24 04:04:02;;;;;;;1.80;1.00;;;9.80;87.70;;;8.23;86.52;95563.06;5048763;28;20542;-67
2020/12/24 04:06:28;;;;;;;2.25;0.90;;;9.80;87.70;;;8.22;86.92;95564.88;5045199;28;20401;-67
2020/12/24 04:08:53;;;;;;;2.40;0.90;;;9.90;87.70;;;8.23;86.88;95570.91;5015497;28;20117;-67
2020/12/24 04:11:19;;;;;;;2.28;0.73;;;9.80;87.50;;;8.22;86.99;95569.28;5049322;28;20036;-66
2020/12/24 04:13:45;;;;;;;2.08;0.60;;;9.80;87.50;;;8.22;86.71;95575.34;5050003;28;20195;-67
2020/12/24 04:16:11;;;;;;;1.52;0.70;;;9.90;87.40;;;8.23;86.92;95576.16;5032647;28;20057;-66
2020/12/24 04:18:37;;;;;;;2.60;0.65;;;9.90;87.20;;;8.24;87.11;95577.78;5016350;28;20795;-66
2020/12/24 04:21:03;;;;;;;1.35;0.50;;;9.90;87.00;;;8.23;86.86;95576.16;5032891;28;20128;-66
2020/12/24 04:23:28;;;;;;;1.92;0.40;;;9.90;87.10;;;8.24;86.76;95577.78;5049119;28;20040;-66
2020/12/24 04:25:54;;;;;;;1.38;0.30;;;9.80;86.70;;;8.21;86.70;95589.44;5049259;28;20025;-66
2020/12/24 04:28:19;;;;;;;0.28;0.20;;;9.80;86.40;;;8.19;86.37;95585.38;5032060;28;20029;-68
2020/12/24 04:30:45;;;;;;;2.17;0.30;;;9.70;86.50;;;8.17;86.51;95590.81;5049467;28;20493;-67
2020/12/24 04:33:12;;;;;;;0.88;0.20;;;9.60;86.70;;;8.16;86.75;95597.06;5049053;28;20404;-67
2020/12/24 04:35:37;;;;;;;3.25;0.30;;;9.70;86.60;;;8.14;86.67;95599.03;5065827;28;20040;-66
2020/12/24 04:38:04;;;;;;;2.28;0.20;;;9.70;86.30;;;8.13;86.53;95600.00;5049896;28;20033;-66
2020/12/24 04:40:29;;;;;;;0.10;0.10;;;9.70;85.70;;;8.10;86.31;95589.09;5013671;28;20124;-67
2020/12/24 04:42:55;;;;;;;1.00;0.10;;;9.60;86.10;;;8.08;85.79;95593.72;5032952;28;20124;-67
2020/12/24 04:45:21;;;;;;;0.10;0.10;;;9.60;85.80;;;8.07;86.03;95597.34;5014906;28;20592;-67
2020/12/24 04:47:47;;;;;;;0.50;0.17;;;9.60;85.10;;;8.01;85.79;95625.09;5032167;28;20037;-67
2020/12/24 04:50:13;;;;;;;0.75;0.10;;;9.40;84.90;;;7.90;85.23;95618.50;5015199;28;20029;-67
2020/12/24 04:52:39;;;;;;;0.20;0.10;;;9.10;81.50;;;7.80;84.72;95612.75;5032489;28;20036;-67
2020/12/24 04:55:04;;;;;;;1.65;0.65;;;9.00;81.30;;;7.69;84.35;95605.34;5048818;28;20404;-67
2020/12/24 04:57:30;;;;;;;1.25;0.70;;;8.80;81.50;;;7.58;83.99;95611.06;5014742;28;20090;-67
2020/12/24 04:59:57;;;;;;;1.13;0.70;;;8.80;81.80;;;7.49;84.04;95604.31;5065083;28;20150;-65
2020/12/24 05:02:23;;;;;;;2.15;0.63;;;8.60;83.00;;;7.42;83.84;95613.88;5032682;28;20494;-67
2020/12/24 05:04:52;;;;;;;3.60;1.23;;;8.70;83.40;;;7.38;83.58;95619.47;5048015;28;20123;-68
2020/12/24 05:07:18;;;;;;;3.92;0.60;;;8.70;83.30;;;7.30;84.18;95616.16;5044948;28;20424;-66
2020/12/24 05:09:43;;;;;;;1.42;0.30;;;8.60;83.40;;;7.21;84.35;95612.78;5048622;28;20036;-66
2020/12/24 05:12:09;;;;;;;4.03;1.20;;;8.50;84.00;;;7.15;84.59;95613.50;5031851;28;20053;-66
2020/12/24 05:14:35;;;;;;;2.47;1.45;;;8.50;84.50;;;7.09;84.17;95619.47;5031464;28;20048;-67
2020/12/24 05:17:07;;;;;;;0.95;0.40;;;8.40;84.90;;;7.04;85.14;95612.16;5015282;28;20033;-67
2020/12/24 05:19:35;;;;;;;3.22;1.65;;;8.40;85.00;;;7.03;84.32;95621.00;5064979;28;20214;-67
2020/12/24 05:22:16;;;;;;;1.35;0.43;;;8.50;84.90;;;7.01;84.73;95632.59;5047763;28;20524;-67
2020/12/24 05:24:41;;;;;;;2.97;1.02;;;8.40;84.90;;;7.00;85.04;95636.22;5047388;28;20041;-67
2020/12/24 05:27:13;;;;;;;0.65;0.28;;;8.50;84.90;;;6.97;85.30;95636.56;5048163;28;20538;-67
2020/12/24 05:29:40;;;;;;;4.82;2.80;;;8.40;85.20;;;6.96;84.49;95632.31;5048558;28;20033;-67
2020/12/24 05:32:06;;;;;;;6.53;3.05;;;8.50;84.90;;;6.95;85.00;95638.53;5030917;28;20041;-67
2020/12/24 05:34:32;;;;;;;0.82;0.40;;;8.50;83.80;;;6.90;84.23;95626.00;5048174;28;20124;-66
2020/12/24 05:37:17;;;;;;;2.92;1.17;;;8.40;84.00;;;6.88;85.06;95630.59;5031197;28;20148;-66
2020/12/24 05:39:45;;;;;;;2.85;1.58;;;8.40;84.60;;;6.87;84.50;95630.78;5019373;28;20035;-66
2020/12/24 05:42:10;;;;;;;1.90;0.75;;;8.30;83.80;;;6.84;84.25;95626.72;5030752;28;20052;-66
2020/12/24 05:44:36;;;;;;;1.10;0.43;;;8.30;83.60;;;6.83;84.19;95626.91;5049289;28;20049;-67
2020/12/24 05:47:02;;;;;;;0.30;0.30;;;8.30;83.30;;;6.81;83.73;95637.53;5047555;28;20500;-66
2020/12/24 05:49:28;;;;;;;0.70;0.20;;;8.30;82.90;;;6.81;84.06;95637.53;5047973;28;20041;-66
2020/12/24 05:51:57;;;;;;;0.93;0.28;;;8.30;83.00;;;6.80;83.77;95625.47;5030280;28;20044;-66
2020/12/24 05:54:23;;;;;;;1.75;0.40;;;8.40;83.10;;;6.80;84.38;95619.44;5028037;28;20144;-66
2020/12/24 05:56:48;;;;;;;1.58;0.30;;;8.30;83.00;;;6.76;83.36;95611.91;5016352;28;20029;-66
2020/12/24 05:59:25;;;;;;;1.55;0.68;;;8.30;83.30;;;6.75;84.60;95620.75;5047538;28;20171;-66
2020/12/24 06:02:06;;;;;;;2.70;0.50;;;8.30;83.70;;;6.73;84.86;95633.19;5047049;28;20040;-67
2020/12/24 06:04:45;;;;;;;0.88;0.30;;;8.30;83.50;;;6.70;84.76;95641.38;5064103;28;20049;-67
2020/12/24 06:07:20;;;;;;;0.73;0.30;;;8.20;83.90;;;6.69;84.03;95634.53;5057146;28;20505;-66
2020/12/24 06:09:50;;;;;;;1.00;0.20;;;8.20;83.80;;;6.67;83.75;95630.47;5039655;28;20643;-67
2020/12/24 06:12:25;;;;;;;0.68;0.22;;;8.20;84.20;;;6.63;84.88;95624.78;5028559;28;20046;-66
2020/12/24 06:15:01;;;;;;;1.13;0.40;;;8.20;84.50;;;6.61;85.32;95621.53;5004009;28;20436;-67
2020/12/24 06:17:28;;;;;;;0.80;0.30;;;8.20;84.50;;;6.60;83.81;95619.09;5029440;28;20049;-66
2020/12/24 06:19:54;;;;;;;1.92;0.28;;;8.10;84.50;;;6.56;84.42;95616.00;5046410;28;20065;-66
2020/12/24 06:22:21;;;;;;;0.10;0.10;;;8.10;84.90;;;6.48;84.22;95595.19;5030711;28;20422;-67
2020/12/24 06:24:54;;;;;;;1.30;0.43;;;7.90;85.00;;;6.40;84.62;95587.41;5031171;28;20042;-66
2020/12/24 06:27:35;;;;;;;0.30;0.20;;;7.80;85.20;;;6.38;84.88;95594.63;5030347;28;20029;-66
2020/12/24 06:30:06;;;;;;;2.78;0.20;;;7.80;85.20;;;6.34;85.10;95593.34;5030016;28;20067;-66
2020/12/24 06:32:37;;;;;;;;;;;7.80;84.70;;;6.29;84.33;95591.22;5031052;28;20071;-66
2020/12/24 06:35:03;;;;;;;1.95;0.77;;;7.70;84.00;;;6.24;84.81;95585.72;5030656;28;19923;-66
2020/12/24 06:37:37;;;;;;;1.27;0.17;;;7.70;83.70;;;6.19;84.35;95585.44;5046648;28;20052;-69
2020/12/24 06:40:03;;;;;;;1.08;0.25;;;7.60;83.20;;;6.16;83.78;95598.03;5030553;28;20110;-69
2020/12/24 06:42:42;;;;;;;2.50;0.30;;;7.60;83.30;;;6.13;83.91;95592.19;5028530;28;20761;-69
2020/12/24 06:45:20;;;;;;;1.20;0.40;;;7.60;83.40;;;6.12;83.71;95600.19;5012830;28;20045;-71
2020/12/24 06:48:12;;;;;;;0.43;0.20;;;7.60;82.80;;;6.08;83.87;95597.09;5031326;28;20136;-70
2020/12/24 06:50:41;;;;;;;1.13;0.20;;;7.50;82.40;;;6.07;83.53;95592.03;5044922;28;20036;-69
2020/12/24 06:53:29;;;;;;;0.47;0.20;;;7.60;82.40;;;6.02;82.95;95594.38;5055160;28;20049;-69
2020/12/24 06:56:26;;;;;;;0.60;0.20;;;7.40;82.10;;;5.97;82.27;95581.03;5017526;28;20107;-71
2020/12/24 06:58:58;;;;;;;2.65;0.93;;;7.40;81.70;;;5.91;83.44;95574.72;5042290;28;20048;-67
2020/12/24 07:01:31;;;;;;;1.15;0.47;;;7.40;81.80;;;5.88;82.67;95585.44;5064281;28;20043;-68
2020/12/24 07:04:04;;;;;;;3.05;0.22;;;7.40;81.80;;;5.88;83.21;95590.66;5065141;28;20035;-68
2020/12/24 07:06:50;;;;;;;2.38;0.45;;;7.40;81.90;;;5.87;82.90;95583.00;5030694;28;20035;-67
2020/12/24 07:09:19;;;;;;;2.63;0.30;;;7.40;81.60;;;5.85;83.05;95583.16;5046540;28;20083;-67
2020/12/24 07:11:49;;;;;;;0.88;0.20;;;7.30;81.00;;;5.83;82.07;95580.75;5056336;28;20048;-67
2020/12/24 07:14:34;;;;;;;3.10;0.40;;;7.30;81.00;;;5.82;81.42;95596.56;5050054;28;20447;-67
2020/12/24 07:17:14;;;;;;;2.80;0.50;;;7.40;81.00;;;5.81;82.69;95587.13;5039936;28;20052;-67
2020/12/24 07:19:42;;;;;;;1.75;0.38;;;7.30;80.70;;;5.78;82.38;95593.50;5038778;28;20049;-67
2020/12/24 07:22:16;;;;;;;1.35;0.60;;;7.30;80.60;;;5.78;81.86;95583.06;5025516;28;20041;-67
2020/12/24 07:24:56;;;;;;;1.67;0.50;;;7.30;80.90;;;5.77;81.52;95583.22;5046152;28;20271;-67
2020/12/24 07:27:21;;;;;;;4.28;1.33;;;7.30;80.50;;;5.77;81.60;95580.63;5029428;28;20060;-67
2020/12/24 07:29:47;;;;;;;1.42;0.60;;;7.30;80.00;;;5.74;81.84;95570.53;5050053;28;20067;-67
2020/12/24 07:32:13;;;;;;;1.40;0.70;;;7.30;80.20;;;5.74;81.59;95560.09;5051676;28;20048;-67
2020/12/24 07:34:38;;;;;;;0.65;0.30;;;7.30;80.10;;;5.75;82.00;95569.53;5051478;28;20093;-67
2020/12/24 07:37:04;;;;;;;3.80;0.85;;;7.30;79.50;;;5.74;82.00;95580.97;5050581;28;20447;-67
2020/12/24 07:39:30;;;;;;;1.48;0.63;;;7.30;79.70;;;5.72;82.17;95567.28;5033485;28;20025;-67
2020/12/24 07:41:55;;;;;;;1.48;0.50;;;7.30;79.70;;;5.72;81.95;95556.84;5050199;28;20033;-67
2020/12/24 07:44:21;;;;;;;1.40;0.50;;;7.20;79.40;;;5.72;81.75;95547.22;5033342;28;20073;-67
2020/12/24 07:46:51;;;;;;;2.85;0.90;;;7.20;79.40;;;5.70;81.19;95549.19;5049575;28;20041;-70
2020/12/24 07:49:17;;;;;;;1.00;0.30;;;7.30;79.40;;;5.71;80.69;95570.88;5034037;28;20029;-68
2020/12/24 07:51:42;;;;;;;0.65;0.30;;;7.30;79.00;;;5.73;80.82;95564.50;5050376;28;20037;-68
2020/12/24 07:54:12;;;;;;;3.33;1.13;;;7.30;79.20;;;5.73;81.02;95561.09;5049036;28;20045;-71
2020/12/24 07:56:46;;;;;;;0.98;0.30;;;7.30;79.20;;;5.75;80.38;95556.50;5033552;28;20063;-71
2020/12/24 07:59:13;;;;;;;0.77;0.40;;;7.40;78.80;;;5.78;81.21;95553.53;5064712;28;20073;-72
2020/12/24 08:01:38;;;;;;;4.35;0.90;;;7.40;78.40;;;5.79;80.43;95552.56;5049326;28;20033;-70
2020/12/24 08:04:05;;;;;;;1.48;0.40;;;7.40;77.90;;;5.77;80.49;95544.09;5048455;28;20550;-66
2020/12/24 08:06:31;;;;;;;2.80;0.47;;;7.30;77.20;;;5.78;81.03;95540.50;5016377;28;20029;-68
2020/12/24 08:09:08;;;;;;;2.05;0.88;;;7.30;77.30;;;5.80;79.00;95533.28;5049362;28;20404;-70
2020/12/24 08:11:34;;;;;;;4.13;0.68;;;7.40;77.20;;;5.83;80.18;95538.16;5016208;28;20754;-65
2020/12/24 08:14:00;;;;;;;3.50;2.10;;;7.50;77.50;;;5.85;80.12;95536.19;5016412;28;20095;-65
2020/12/24 08:16:26;;;;;;;4.70;1.42;;;7.50;77.50;;;5.89;80.28;95537.50;5049745;28;20037;-65
2020/12/24 08:18:52;;;;;;;1.77;0.68;;;7.60;76.70;;;5.91;79.89;95542.56;5049664;28;20048;-65
2020/12/24 08:21:25;;;;;;;1.35;0.47;;;7.50;76.80;;;5.92;79.09;95546.81;5032738;28;20041;-66
2020/12/24 08:23:59;;;;;;;1.83;0.55;;;7.50;77.10;;;5.94;79.42;95529.97;5016819;28;20064;-66
2020/12/24 08:26:24;;;;;;;3.15;1.00;;;7.50;76.40;;;5.93;79.50;95528.34;5033538;28;20029;-67
2020/12/24 08:28:57;;;;;;;1.75;0.60;;;7.50;76.00;;;5.93;78.15;95523.16;5016624;28;20098;-66
2020/12/24 08:31:25;;;;;;;3.28;0.70;;;7.60;76.60;;;5.96;79.40;95528.00;5049094;28;20122;-65
2020/12/24 08:33:52;;;;;;;1.02;0.38;;;7.70;76.10;;;6.02;78.84;95531.72;5032510;28;20029;-65
2020/12/24 08:36:23;;;;;;;1.88;0.73;;;7.70;75.80;;;6.01;79.57;95520.47;5049477;28;20087;-65
2020/12/24 08:38:49;;;;;;;;;;;7.60;75.30;;;6.00;78.25;95524.06;5051132;28;20025;-65
2020/12/24 08:41:23;;;;;;;5.80;2.55;;;7.70;75.60;;;6.01;78.39;95509.22;5047518;28;19916;-65
2020/12/24 08:43:55;;;;;;;2.88;0.90;;;7.60;75.70;;;6.06;77.89;95497.25;5016678;28;20037;-66
2020/12/24 08:46:24;;;;;;;4.72;0.50;;;7.80;74.90;;;6.12;79.00;95511.41;5033226;28;20025;-65
2020/12/24 08:48:49;;;;;;;3.17;0.93;;;7.90;74.90;;;6.17;79.64;95519.53;5021486;28;20511;-68
2020/12/24 08:51:19;;;;;;;2.40;1.10;;;8.00;75.10;;;6.20;78.32;95505.31;5015592;28;20033;-69
2020/12/24 08:53:44;;;;;;;2.42;0.75;;;8.00;75.10;;;6.23;78.60;95518.00;5001619;28;20110;-65
2020/12/24 08:56:14;;;;;;;40.55;21.83;;;8.00;74.80;;;6.26;78.19;95512.44;5048684;28;20037;-65
2020/12/24 08:58:51;;;;;;;2.95;1.10;;;8.10;75.10;;;6.27;77.75;95503.59;5012396;28;20071;-71
2020/12/24 09:01:17;;;;;;;1.02;0.45;;;8.10;74.90;;;6.33;78.80;95495.06;5022212;28;20030;-65
2020/12/24 09:03:43;;;;;;;1.00;0.30;;;8.10;74.20;;;6.36;78.35;95499.94;5044376;28;20037;-65
2020/12/24 09:06:13;;;;;;;2.95;1.08;;;8.20;74.10;;;6.39;78.04;95483.91;5048017;28;20033;-65
2020/12/24 09:08:51;;;;;;;7.27;1.77;;;8.30;73.70;;;6.37;77.90;95475.44;5015483;28;20141;-65
2020/12/24 09:11:30;;;;;;;2.72;0.70;;;8.20;74.00;;;6.38;77.43;95482.28;5048008;28;20025;-66
2020/12/24 09:14:05;;;;;;;1.92;0.60;;;8.10;73.90;;;6.36;77.49;95481.66;5031704;28;20500;-66
2020/12/24 09:16:31;;;;;;;2.35;0.35;;;8.10;73.90;;;6.35;77.78;95480.03;5047311;28;20508;-65
2020/12/24 09:19:02;;;;;;;2.20;0.57;;;8.10;74.00;;;6.36;77.45;95476.44;5032067;28;20648;-66
2020/12/24 09:21:27;;;;;;;2.15;0.60;;;8.20;73.70;;;6.35;78.46;95474.81;5042748;28;20444;-66
2020/12/24 09:23:53;;;;;;;3.88;0.90;;;8.10;73.20;;;6.36;77.96;95464.19;5028110;28;20033;-65
2020/12/24 09:26:18;;;;;;;1.65;0.45;;;8.10;73.10;;;6.40;78.20;95464.66;5052723;28;20072;-66
2020/12/24 09:28:44;;;;;;;1.83;0.90;;;8.20;72.70;;;6.44;78.08;95468.50;5028034;28;20040;-66
2020/12/24 09:31:09;;;;;;;1.92;0.90;;;8.30;72.80;;;6.48;77.02;95475.00;5039165;28;20045;-66
2020/12/24 09:33:35;;;;;;;1.77;0.50;;;8.30;72.70;;;6.51;77.90;95469.41;5064403;28;20065;-65
2020/12/24 09:36:00;;;;;;;1.48;0.50;;;8.30;72.20;;;6.54;77.43;95463.00;5047707;28;20532;-65
2020/12/24 09:38:26;;;;;;;1.15;0.50;;;8.40;72.40;;;6.56;77.25;95467.06;5064055;28;20451;-68
2020/12/24 09:40:52;;;;;;;0.82;0.28;;;8.40;72.10;;;6.57;76.75;95457.47;5058473;28;20069;-68
2020/12/24 09:43:17;;;;;;;5.95;3.03;;;8.40;72.30;;;6.58;76.73;95454.66;5013798;28;20079;-67
2020/12/24 09:45:43;;;;;;;1.42;0.50;;;8.40;72.60;;;6.57;77.18;95442.59;5027163;28;20037;-68
2020/12/24 09:48:09;;;;;;;1.50;0.35;;;8.40;72.00;;;6.58;77.16;95448.63;4981362;28;20051;-68
2020/12/24 09:50:34;;;;;;;0.65;0.40;;;8.40;72.60;;;6.61;76.56;95449.06;5047376;28;20124;-68
2020/12/24 09:53:02;;;;;;;2.10;0.30;;;8.50;72.00;;;6.65;76.94;95439.88;5030977;28;20052;-66
2020/12/24 09:55:27;;;;;;;1.50;0.40;;;8.50;71.90;;;6.69;76.69;95435.91;5030415;28;20097;-65
2020/12/24 09:57:53;;;;;;;1.20;0.60;;;8.60;71.80;;;6.75;76.75;95447.44;5063145;28;20049;-65
2020/12/24 10:00:19;;;;;;;1.60;0.57;;;8.70;71.90;;;6.82;76.91;95445.72;5047017;28;20035;-66
2020/12/24 10:02:44;;;;;;;10.40;4.38;;;8.80;72.00;;;6.92;76.85;95437.59;5030857;28;20079;-68
2020/12/24 10:05:10;;;;;;;7.47;2.63;;;9.00;71.40;;;7.06;76.32;95432.34;5047244;28;20449;-69
2020/12/24 10:07:35;;;;;;;3.17;0.88;;;9.50;72.40;;;7.23;76.66;95427.69;5046875;28;20067;-66
2020/12/24 10:10:01;;;;;;;3.90;1.60;;;9.80;70.50;;;7.41;76.92;95429.09;5032215;28;20033;-65
2020/12/24 10:12:27;;;;;;;2.95;1.20;;;10.00;68.80;;;7.53;76.84;95427.63;5057566;28;20030;-66
2020/12/24 10:14:53;;;;;;;1.27;0.50;;;10.30;67.30;;;7.66;76.79;95412.84;5012404;28;20033;-70
2020/12/24 10:17:23;;;;;;;0.43;0.30;;;10.30;67.50;;;7.78;74.77;95421.03;5055795;28;20412;-71
2020/12/24 10:19:48;;;;;;;1.80;0.70;;;10.20;67.10;;;7.92;76.17;95421.94;5041433;28;20039;-70
2020/12/24 10:22:14;;;;;;;1.55;0.63;;;10.50;67.30;;;8.04;76.30;95414.38;5047740;28;20123;-70
2020/12/24 10:24:40;;;;;;;1.35;0.45;;;10.60;66.90;;;8.21;76.12;95426.19;5030064;28;20041;-66
2020/12/24 10:27:07;;;;;;;1.77;0.63;;;10.80;65.70;;;8.35;75.32;95406.97;5010415;28;20037;-66
2020/12/24 10:29:33;;;;;;;2.60;0.50;;;10.80;66.70;;;8.43;75.59;95398.16;5030208;28;20103;-66
2020/12/24 10:31:58;;;;;;;0.52;0.30;;;10.70;66.30;;;8.57;75.10;95403.28;5034091;28;20037;-65